createdAt,value
2019-01-26T00:00:37.367Z,-1.09
2019-01-26T00:06:21.007Z,-1.00
2019-01-26T00:08:52.598Z,-0.95
2019-01-26T00:11:23.703Z,-0.82
2019-01-26T00:13:54.885Z,-0.73
2019-01-26T00:16:25.962Z,-0.72
2019-01-26T00:18:57.059Z,-0.73
2019-01-26T00:21:28.198Z,-0.65
2019-01-26T00:23:59.306Z,-0.58
2019-01-26T00:26:30.791Z,-0.55
2019-01-26T00:29:01.943Z,-0.49
2019-01-26T00:31:33.018Z,-0.48
2019-01-26T00:34:04.138Z,-0.45
2019-01-26T00:36:35.394Z,-0.45
2019-01-26T00:39:09.744Z,-0.44
2019-01-26T00:41:41.122Z,-0.42
2019-01-26T00:44:12.975Z,-0.40
2019-01-26T00:46:44.418Z,-0.40
2019-01-26T00:49:15.535Z,-0.36
2019-01-26T00:51:46.661Z,-0.33
2019-01-26T00:54:18.241Z,-0.34
2019-01-26T00:56:49.376Z,-0.34
2019-01-26T00:59:20.844Z,-0.35
2019-01-26T01:01:51.972Z,-0.27
2019-01-26T01:04:23.433Z,-0.25
2019-01-26T01:06:54.897Z,-0.21
2019-01-26T01:09:26.038Z,-0.13
2019-01-26T01:11:57.113Z,-0.16
2019-01-26T01:14:28.288Z,-0.16
2019-01-26T01:16:59.401Z,-0.10
2019-01-26T01:19:30.617Z,-0.12
2019-01-26T01:22:02.461Z,-0.07
2019-01-26T01:24:33.906Z,-0.11
2019-01-26T01:27:04.989Z,-0.05
2019-01-26T01:29:36.122Z,-0.04
2019-01-26T01:32:07.239Z,-0.02
2019-01-26T01:34:38.381Z,0.04
2019-01-26T01:37:09.522Z,-0.02
2019-01-26T01:39:41.433Z,0.06
2019-01-26T01:42:12.899Z,0.09
2019-01-26T01:44:44.031Z,0.11
2019-01-26T01:47:15.121Z,0.07
2019-01-26T01:49:46.186Z,0.07
2019-01-26T01:52:19.303Z,0.09
2019-01-26T01:54:50.095Z,0.12
2019-01-26T01:57:21.190Z,0.07
2019-01-26T01:59:52.664Z,0.07
2019-01-26T02:02:24.295Z,0.20
2019-01-26T02:04:55.679Z,0.17
2019-01-26T02:07:27.202Z,0.18
2019-01-26T02:09:59.236Z,0.13
2019-01-26T02:12:30.325Z,0.24
2019-01-26T02:15:01.827Z,0.28
2019-01-26T02:17:32.934Z,0.26
2019-01-26T02:20:04.051Z,0.31
2019-01-26T02:22:35.271Z,0.24
2019-01-26T02:25:06.519Z,0.20
2019-01-26T02:27:38.221Z,0.25
2019-01-26T02:30:12.570Z,0.39
2019-01-26T02:32:44.107Z,0.32
2019-01-26T02:35:16.079Z,0.41
2019-01-26T02:37:47.202Z,0.34
2019-01-26T02:40:18.427Z,0.35
2019-01-26T02:42:49.562Z,0.26
2019-01-26T02:45:20.738Z,0.40
2019-01-26T02:47:51.831Z,0.45
2019-01-26T02:50:22.924Z,0.34
2019-01-26T02:52:54.050Z,0.37
2019-01-26T02:55:25.206Z,0.42
2019-01-26T02:57:56.295Z,0.35
2019-01-26T03:00:27.382Z,0.50
2019-01-26T03:02:58.584Z,0.47
2019-01-26T03:05:29.683Z,0.53
2019-01-26T03:08:01.168Z,0.40
2019-01-26T03:10:32.348Z,0.46
2019-01-26T03:13:03.438Z,0.45
2019-01-26T03:15:34.897Z,0.50
2019-01-26T03:18:06.311Z,0.56
2019-01-26T03:20:37.424Z,0.52
2019-01-26T03:23:08.831Z,0.62
2019-01-26T03:25:39.897Z,0.66
2019-01-26T03:28:11.041Z,0.69
2019-01-26T03:30:42.225Z,0.70
2019-01-26T03:33:13.312Z,0.65
2019-01-26T03:35:44.730Z,0.77
2019-01-26T03:38:15.898Z,0.61
2019-01-26T03:40:47.022Z,0.71
2019-01-26T03:43:18.364Z,0.95
2019-01-26T03:45:49.420Z,0.84
2019-01-26T03:48:20.499Z,0.78
2019-01-26T03:50:51.865Z,0.71
2019-01-26T03:53:22.903Z,0.76
2019-01-26T03:55:53.983Z,0.83
2019-01-26T03:58:24.980Z,0.71
2019-01-26T04:00:56.079Z,0.71
2019-01-26T04:03:27.145Z,0.85
2019-01-26T04:05:59.351Z,0.80
2019-01-26T04:08:30.480Z,0.79
2019-01-26T04:11:01.513Z,0.88
2019-01-26T04:13:32.836Z,0.94
2019-01-26T04:16:05.489Z,0.78
2019-01-26T04:18:36.480Z,0.74
2019-01-26T04:21:07.480Z,0.93
2019-01-26T04:23:38.554Z,0.79
2019-01-26T04:26:09.694Z,0.78
2019-01-26T04:28:41.105Z,0.80
2019-01-26T04:31:12.805Z,0.79
2019-01-26T04:33:43.839Z,0.78
2019-01-26T04:36:14.902Z,0.82
2019-01-26T04:38:46.036Z,0.84
2019-01-26T04:41:17.082Z,0.85
2019-01-26T04:43:48.486Z,0.86
2019-01-26T04:46:19.551Z,0.82
2019-01-26T04:48:50.554Z,1.02
2019-01-26T04:51:21.574Z,0.85
2019-01-26T04:53:52.960Z,0.88
2019-01-26T04:56:24.026Z,0.93
2019-01-26T04:58:55.420Z,0.86
2019-01-26T05:01:29.187Z,0.96
2019-01-26T05:04:00.201Z,1.02
2019-01-26T05:06:31.248Z,0.97
2019-01-26T05:09:05.233Z,0.98
2019-01-26T05:11:37.392Z,0.99
2019-01-26T05:14:08.447Z,1.09
2019-01-26T05:16:39.562Z,1.08
2019-01-26T05:19:11.070Z,1.13
2019-01-26T05:21:42.718Z,1.12
2019-01-26T05:24:13.844Z,1.13
2019-01-26T05:26:45.168Z,1.15
2019-01-26T05:29:16.602Z,1.27
2019-01-26T05:31:48.042Z,1.16
2019-01-26T05:34:19.084Z,1.17
2019-01-26T05:36:50.505Z,1.27
2019-01-26T05:39:22.099Z,1.24
2019-01-26T05:41:53.143Z,1.31
2019-01-26T05:44:24.542Z,1.27
2019-01-26T05:46:56.186Z,1.34
2019-01-26T05:49:29.959Z,1.31
2019-01-26T05:52:00.997Z,1.31
2019-01-26T05:54:32.438Z,1.46
2019-01-26T05:57:03.806Z,1.40
2019-01-26T05:59:35.172Z,1.41
2019-01-26T06:02:06.234Z,1.49
2019-01-26T06:04:37.258Z,1.44
2019-01-26T06:07:08.312Z,1.52
2019-01-26T06:09:39.707Z,1.52
2019-01-26T06:12:11.048Z,1.52
2019-01-26T06:14:42.110Z,1.51
2019-01-26T06:17:13.179Z,1.56
2019-01-26T06:19:44.269Z,1.57
2019-01-26T06:22:15.304Z,1.53
2019-01-26T06:24:46.720Z,1.55
2019-01-26T06:27:18.781Z,1.58
2019-01-26T06:29:49.793Z,1.61
2019-01-26T06:32:22.782Z,1.55
2019-01-26T06:34:54.116Z,1.58
2019-01-26T06:37:25.474Z,1.63
2019-01-26T06:39:56.908Z,1.62
2019-01-26T06:42:31.332Z,1.64
2019-01-26T06:45:02.971Z,1.64
2019-01-26T06:47:37.114Z,1.68
2019-01-26T06:50:10.830Z,1.66
2019-01-26T06:52:41.822Z,1.68
2019-01-26T06:55:13.178Z,1.67
2019-01-26T06:57:44.182Z,1.61
2019-01-26T07:00:18.274Z,1.66
2019-01-26T07:02:49.391Z,1.64
2019-01-26T07:05:45.726Z,1.68
2019-01-26T07:08:22.859Z,1.63
2019-01-26T07:10:54.012Z,1.62
2019-01-26T07:13:25.916Z,1.64
2019-01-26T07:15:59.568Z,1.72
2019-01-26T07:18:33.471Z,1.78
2019-01-26T07:21:04.519Z,1.82
2019-01-26T07:23:35.947Z,1.72
2019-01-26T07:26:06.988Z,1.81
2019-01-26T07:28:38.005Z,1.86
2019-01-26T07:31:09.088Z,1.86
2019-01-26T07:33:43.325Z,1.85
2019-01-26T07:36:14.700Z,1.82
2019-01-26T07:38:46.374Z,1.82
2019-01-26T07:41:17.705Z,1.81
2019-01-26T07:43:48.682Z,1.73
2019-01-26T07:46:20.217Z,1.77
2019-01-26T07:48:51.243Z,1.79
2019-01-26T07:51:23.165Z,1.78
2019-01-26T07:53:54.945Z,1.82
2019-01-26T07:56:26.614Z,1.83
2019-01-26T07:58:58.903Z,1.85
2019-01-26T08:01:31.414Z,1.88
2019-01-26T08:04:02.435Z,1.84
2019-01-26T08:06:33.782Z,1.96
2019-01-26T08:09:07.274Z,1.90
2019-01-26T08:11:38.343Z,1.85
2019-01-26T08:14:12.602Z,1.87
2019-01-26T08:16:44.116Z,2.00
2019-01-26T08:19:15.146Z,2.00
2019-01-26T08:21:46.484Z,1.96
2019-01-26T08:24:18.196Z,1.95
2019-01-26T08:26:49.297Z,1.95
2019-01-26T08:29:20.273Z,2.05
2019-01-26T08:31:51.356Z,2.05
2019-01-26T08:34:22.412Z,2.15
2019-01-26T08:36:53.785Z,2.17
2019-01-26T08:39:24.816Z,2.16
2019-01-26T08:41:56.153Z,2.16
2019-01-26T08:44:27.849Z,2.10
2019-01-26T08:46:58.886Z,2.15
2019-01-26T08:49:29.942Z,2.13
2019-01-26T08:52:00.955Z,2.12
2019-01-26T08:54:32.203Z,2.09
2019-01-26T08:57:03.211Z,2.08
2019-01-26T08:59:34.214Z,2.12
2019-01-26T09:02:32.990Z,2.15
2019-01-26T09:05:04.863Z,2.17
2019-01-26T09:07:36.211Z,2.19
2019-01-26T09:10:08.810Z,2.19
2019-01-26T09:12:40.440Z,2.21
2019-01-26T09:15:11.855Z,2.20
2019-01-26T09:17:42.959Z,2.19
2019-01-26T09:20:17.081Z,2.17
2019-01-26T09:22:48.127Z,2.18
2019-01-26T09:25:19.382Z,2.22
2019-01-26T09:27:50.604Z,2.20
2019-01-26T09:30:21.679Z,2.21
2019-01-26T09:32:52.723Z,2.22
2019-01-26T09:35:24.049Z,2.23
2019-01-26T09:37:55.087Z,2.26
2019-01-26T09:40:26.157Z,2.26
2019-01-26T09:42:57.165Z,2.26
2019-01-26T09:45:28.217Z,2.27
2019-01-26T09:47:59.266Z,2.26
2019-01-26T09:50:30.894Z,2.27
2019-01-26T09:53:03.750Z,2.26
2019-01-26T09:55:34.757Z,2.27
2019-01-26T09:58:05.890Z,2.29
2019-01-26T10:00:37.227Z,2.32
2019-01-26T10:03:08.499Z,2.32
2019-01-26T10:05:39.823Z,2.33
2019-01-26T10:08:14.143Z,2.34
2019-01-26T10:10:45.877Z,2.36
2019-01-26T10:13:17.214Z,2.38
2019-01-26T10:15:48.545Z,2.38
2019-01-26T10:18:19.640Z,2.41
2019-01-26T10:20:50.640Z,2.40
2019-01-26T10:23:22.178Z,2.43
2019-01-26T10:25:53.261Z,2.42
2019-01-26T10:28:25.016Z,2.44
2019-01-26T10:31:01.268Z,2.44
2019-01-26T10:33:33.761Z,2.45
2019-01-26T10:36:23.668Z,2.45
2019-01-26T10:39:01.357Z,2.46
2019-01-26T10:41:44.642Z,2.48
2019-01-26T10:44:34.463Z,2.47
2019-01-26T10:47:05.592Z,2.49
2019-01-26T10:49:36.590Z,2.52
2019-01-26T10:52:07.783Z,2.55
2019-01-26T10:54:39.122Z,2.56
2019-01-26T10:57:10.252Z,2.58
2019-01-26T10:59:41.651Z,2.60
2019-01-26T11:02:13.344Z,2.64
2019-01-26T11:04:46.662Z,2.64
2019-01-26T11:07:18.158Z,2.69
2019-01-26T11:09:49.152Z,2.71
2019-01-26T11:12:20.155Z,2.73
2019-01-26T11:14:51.560Z,2.77
2019-01-26T11:17:22.875Z,2.80
2019-01-26T11:19:54.542Z,2.82
2019-01-26T11:22:25.592Z,2.83
2019-01-26T11:24:58.334Z,2.89
2019-01-26T11:27:29.424Z,2.87
2019-01-26T11:30:01.445Z,2.92
2019-01-26T11:32:32.786Z,2.92
2019-01-26T11:35:04.221Z,2.96
2019-01-26T11:37:35.275Z,2.99
2019-01-26T11:40:19.837Z,3.06
2019-01-26T11:42:51.189Z,3.03
2019-01-26T11:45:36.323Z,3.08
2019-01-26T11:48:12.359Z,3.14
2019-01-26T11:50:46.678Z,3.12
2019-01-26T11:53:18.191Z,3.13
2019-01-26T11:55:54.983Z,3.19
2019-01-26T11:58:26.367Z,3.23
2019-01-26T12:01:25.539Z,3.28
2019-01-26T12:04:05.572Z,3.25
2019-01-26T12:06:50.866Z,3.30
2019-01-26T12:09:21.909Z,3.29
2019-01-26T12:11:53.662Z,3.28
2019-01-26T12:14:25.089Z,3.30
2019-01-26T12:16:56.441Z,3.36
2019-01-26T12:19:28.382Z,3.39
2019-01-26T12:21:59.429Z,3.42
2019-01-26T12:24:32.665Z,3.43
2019-01-26T12:27:03.680Z,3.43
2019-01-26T12:29:35.081Z,3.47
2019-01-26T12:32:06.453Z,3.50
2019-01-26T12:34:37.455Z,3.51
2019-01-26T12:37:08.510Z,3.56
2019-01-26T12:39:42.270Z,3.56
2019-01-26T12:42:14.047Z,3.62
2019-01-26T12:44:45.110Z,3.66
2019-01-26T12:47:17.127Z,3.67
2019-01-26T12:49:48.255Z,3.66
2019-01-26T12:52:19.387Z,3.81
2019-01-26T12:54:50.747Z,3.86
2019-01-26T12:57:22.151Z,3.97
2019-01-26T12:59:53.468Z,3.98
2019-01-26T13:02:24.981Z,3.98
2019-01-26T13:04:56.004Z,4.17
2019-01-26T13:07:27.189Z,4.11
2019-01-26T13:09:58.490Z,4.29
2019-01-26T13:12:29.918Z,4.30
2019-01-26T13:15:01.437Z,4.46
2019-01-26T13:17:32.529Z,4.66
2019-01-26T13:20:03.538Z,4.52
2019-01-26T13:22:34.626Z,4.66
2019-01-26T13:25:07.046Z,4.59
2019-01-26T13:27:38.726Z,4.65
2019-01-26T13:30:15.128Z,4.67
2019-01-26T13:32:47.279Z,4.77
2019-01-26T13:35:18.663Z,4.72
2019-01-26T13:37:49.744Z,4.85
2019-01-26T13:40:21.959Z,4.75
2019-01-26T13:42:53.020Z,4.90
2019-01-26T13:45:24.356Z,4.78
2019-01-26T13:47:55.416Z,4.90
2019-01-26T13:50:26.436Z,4.84
2019-01-26T13:52:57.729Z,4.82
2019-01-26T13:55:29.172Z,4.94
2019-01-26T13:58:01.146Z,4.94
2019-01-26T14:00:32.857Z,4.86
2019-01-26T14:03:04.206Z,4.94
2019-01-26T14:05:35.577Z,4.94
2019-01-26T14:08:06.677Z,4.89
2019-01-26T14:10:37.697Z,5.01
2019-01-26T14:13:08.748Z,4.95
2019-01-26T14:15:39.802Z,4.95
2019-01-26T14:18:12.670Z,5.01
2019-01-26T14:20:44.394Z,4.99
2019-01-26T14:23:17.158Z,4.98
2019-01-26T14:25:48.178Z,5.00
2019-01-26T14:28:19.238Z,5.01
2019-01-26T14:30:58.814Z,5.03
2019-01-26T14:33:29.852Z,5.03
2019-01-26T14:36:02.440Z,5.00
2019-01-26T14:38:35.307Z,5.08
2019-01-26T14:41:06.791Z,5.04
2019-01-26T14:43:37.839Z,5.00
2019-01-26T14:46:08.897Z,5.09
2019-01-26T14:48:39.889Z,5.04
2019-01-26T14:51:11.232Z,5.07
2019-01-26T14:53:47.641Z,5.10
2019-01-26T14:56:15.272Z,5.12
2019-01-26T14:58:46.300Z,5.12
2019-01-26T15:01:17.641Z,5.05
2019-01-26T15:03:48.657Z,5.07
2019-01-26T15:06:20.058Z,5.13
2019-01-26T15:08:51.125Z,5.11
2019-01-26T15:11:23.721Z,5.08
2019-01-26T15:13:54.745Z,5.03
2019-01-26T15:16:25.809Z,5.04
2019-01-26T15:18:56.877Z,5.07
2019-01-26T15:21:27.898Z,5.06
2019-01-26T15:23:59.290Z,5.03
2019-01-26T15:26:30.330Z,5.09
2019-01-26T15:29:01.379Z,5.10
2019-01-26T15:31:32.744Z,5.19
2019-01-26T15:34:03.772Z,5.03
2019-01-26T15:36:37.948Z,5.07
2019-01-26T15:39:10.135Z,5.09
2019-01-26T15:41:41.223Z,5.15
2019-01-26T15:44:12.707Z,4.95
2019-01-26T15:46:43.832Z,5.04
2019-01-26T15:49:14.905Z,5.08
2019-01-26T15:51:46.056Z,5.07
2019-01-26T15:54:17.469Z,5.03
2019-01-26T15:56:51.317Z,5.01
2019-01-26T15:59:23.929Z,5.03
2019-01-26T16:01:54.989Z,4.98
2019-01-26T16:04:26.006Z,4.94
2019-01-26T16:06:57.017Z,4.94
2019-01-26T16:09:28.738Z,4.95
2019-01-26T16:11:59.758Z,4.88
2019-01-26T16:14:30.870Z,4.88
2019-01-26T16:17:01.965Z,5.00
2019-01-26T16:19:33.326Z,4.87
2019-01-26T16:22:04.690Z,4.83
2019-01-26T16:24:36.075Z,4.88
2019-01-26T16:27:07.394Z,4.93
2019-01-26T16:29:39.004Z,4.82
2019-01-26T16:32:10.159Z,4.86
2019-01-26T16:34:42.980Z,4.90
2019-01-26T16:37:14.330Z,4.96
2019-01-26T16:39:46.449Z,4.85
2019-01-26T16:42:17.440Z,4.85
2019-01-26T16:44:48.365Z,4.88
2019-01-26T16:47:19.465Z,4.85
2019-01-26T16:49:51.583Z,4.81
2019-01-26T16:52:22.631Z,4.83
2019-01-26T16:54:56.269Z,4.87
2019-01-26T16:57:27.328Z,4.83
2019-01-26T16:59:58.365Z,4.83
2019-01-26T17:02:29.436Z,4.77
2019-01-26T17:05:01.109Z,4.84
2019-01-26T17:07:32.477Z,4.85
2019-01-26T17:10:03.585Z,4.78
2019-01-26T17:12:34.654Z,4.83
2019-01-26T17:15:09.701Z,4.75
2019-01-26T17:17:40.821Z,4.86
2019-01-26T17:20:22.075Z,4.82
2019-01-26T17:22:53.722Z,4.72
2019-01-26T17:25:24.942Z,4.79
2019-01-26T17:27:56.913Z,4.77
2019-01-26T17:30:37.575Z,4.78
2019-01-26T17:33:08.775Z,4.78
2019-01-26T17:35:40.008Z,4.76
2019-01-26T17:38:11.019Z,4.82
2019-01-26T17:40:42.376Z,4.82
2019-01-26T17:43:13.463Z,4.83
2019-01-26T17:45:44.484Z,4.89
2019-01-26T17:48:15.580Z,4.86
2019-01-26T17:50:46.904Z,4.80
2019-01-26T17:53:18.105Z,4.77
2019-01-26T17:55:52.248Z,4.81
2019-01-26T17:58:26.038Z,4.77
2019-01-26T18:00:58.624Z,4.83
2019-01-26T18:03:30.422Z,4.75
2019-01-26T18:06:01.518Z,4.76
2019-01-26T18:08:32.558Z,4.75
2019-01-26T18:11:03.653Z,4.73
2019-01-26T18:13:34.663Z,4.70
2019-01-26T18:16:05.666Z,4.72
2019-01-26T18:18:37.123Z,4.66
2019-01-26T18:21:08.181Z,4.74
2019-01-26T18:23:39.339Z,4.72
2019-01-26T18:26:10.503Z,4.67
2019-01-26T18:28:41.836Z,4.69
2019-01-26T18:31:12.908Z,4.65
2019-01-26T18:33:43.992Z,4.69
2019-01-26T18:43:03.770Z,4.67
2019-01-26T18:45:27.198Z,4.65
2019-01-26T18:47:58.556Z,4.64
2019-01-26T18:50:32.778Z,4.66
2019-01-26T18:53:06.847Z,4.67
2019-01-26T18:55:38.720Z,4.65
2019-01-26T18:58:10.201Z,4.63
2019-01-26T19:00:50.020Z,4.60
2019-01-26T19:04:06.004Z,4.62
2019-01-26T19:06:36.972Z,4.62
2019-01-26T19:09:11.924Z,4.61
2019-01-26T19:11:42.973Z,4.56
2019-01-26T19:14:14.365Z,4.56
2019-01-26T19:16:47.073Z,4.53
2019-01-26T19:19:18.431Z,4.50
2019-01-26T19:21:49.398Z,4.48
2019-01-26T19:24:20.731Z,4.48
2019-01-26T19:26:52.454Z,4.44
2019-01-26T19:29:23.725Z,4.44
2019-01-26T19:31:54.715Z,4.46
2019-01-26T19:34:25.751Z,4.43
2019-01-26T19:36:57.155Z,4.45
2019-01-26T19:39:28.898Z,4.42
2019-01-26T19:41:59.923Z,4.45
2019-01-26T19:44:30.982Z,4.43
2019-01-26T19:47:02.357Z,4.43
2019-01-26T19:49:33.400Z,4.41
2019-01-26T19:52:05.324Z,4.40
2019-01-26T19:54:36.696Z,4.42
2019-01-26T19:57:07.720Z,4.43
2019-01-26T19:59:38.677Z,4.41
2019-01-26T20:02:10.086Z,4.43
2019-01-26T20:04:41.053Z,4.41
2019-01-26T20:07:12.562Z,4.39
2019-01-26T20:09:43.657Z,4.31
2019-01-26T20:12:14.668Z,4.28
2019-01-26T20:14:46.701Z,4.27
2019-01-26T20:17:18.156Z,4.25
2019-01-26T20:19:49.543Z,4.24
2019-01-26T20:22:20.939Z,4.21
2019-01-26T20:24:52.094Z,4.18
2019-01-26T20:31:24.159Z,4.23
2019-01-26T20:33:55.239Z,4.19
2019-01-26T20:36:26.558Z,4.17
2019-01-26T20:38:57.622Z,4.12
2019-01-26T20:41:28.688Z,4.13
2019-01-26T20:44:00.035Z,4.15
2019-01-26T20:46:31.228Z,4.13
2019-01-26T20:49:03.220Z,4.11
2019-01-26T20:51:34.485Z,4.08
2019-01-26T20:54:05.545Z,4.10
2019-01-26T20:56:37.130Z,4.07
2019-01-26T20:59:08.135Z,4.07
2019-01-26T21:01:39.146Z,4.11
2019-01-26T21:04:10.262Z,4.09
2019-01-26T21:06:42.262Z,4.24
2019-01-26T21:09:13.351Z,4.17
2019-01-26T21:11:44.362Z,4.18
2019-01-26T21:14:15.338Z,4.18
2019-01-26T21:16:46.528Z,4.21
2019-01-26T21:19:17.496Z,4.24
2019-01-26T21:21:48.795Z,4.22
2019-01-26T21:24:20.011Z,4.25
2019-01-26T21:26:51.307Z,4.16
2019-01-26T21:29:22.741Z,4.23
2019-01-26T21:31:53.852Z,4.18
2019-01-26T21:34:24.999Z,4.25
2019-01-26T21:36:56.336Z,4.31
2019-01-26T21:39:27.865Z,4.29
2019-01-26T21:41:58.872Z,4.31
2019-01-26T21:44:29.881Z,4.30
2019-01-26T21:47:01.261Z,4.28
2019-01-26T21:49:32.330Z,4.22
2019-01-26T21:52:03.358Z,4.19
2019-01-26T21:54:34.458Z,4.25
2019-01-26T21:57:05.419Z,4.24
2019-01-26T21:59:36.500Z,4.19
2019-01-26T22:02:07.931Z,4.21
2019-01-26T22:04:39.257Z,4.17
2019-01-26T22:07:10.367Z,4.17
2019-01-26T22:09:41.320Z,4.08
2019-01-26T22:12:12.309Z,4.10
2019-01-26T22:14:43.273Z,4.11
2019-01-26T22:17:15.161Z,4.08
2019-01-26T22:19:46.571Z,4.01
2019-01-26T22:22:17.881Z,4.01
2019-01-26T22:24:49.246Z,4.03
2019-01-26T22:27:20.446Z,4.01
2019-01-26T22:29:51.446Z,3.96
2019-01-26T22:32:22.555Z,3.98
2019-01-26T22:34:53.874Z,3.99
2019-01-26T22:37:25.298Z,3.93
2019-01-26T22:39:56.700Z,4.00
2019-01-26T22:42:28.735Z,3.99
2019-01-26T22:44:59.711Z,3.94
2019-01-26T22:47:30.756Z,3.96
2019-01-26T22:50:01.894Z,3.92
2019-01-26T22:52:32.875Z,3.85
2019-01-26T22:55:04.343Z,3.88
2019-01-26T22:57:35.336Z,3.86
2019-01-26T23:00:11.745Z,3.86
2019-01-26T23:02:42.781Z,3.82
2019-01-26T23:06:25.375Z,3.95
2019-01-26T23:08:57.048Z,3.91
2019-01-26T23:12:09.213Z,3.98
2019-01-26T23:15:51.017Z,3.97
2019-01-26T23:19:21.177Z,4.04
2019-01-26T23:22:44.698Z,4.04
2019-01-26T23:26:01.242Z,4.01
2019-01-26T23:29:41.327Z,4.04
2019-01-26T23:32:12.280Z,4.01
2019-01-26T23:34:43.251Z,4.01
2019-01-26T23:37:14.283Z,4.03
2019-01-26T23:39:45.251Z,4.09
2019-01-26T23:42:16.203Z,4.12
2019-01-26T23:44:47.284Z,4.05
2019-01-26T23:47:18.566Z,4.11
2019-01-26T23:49:49.805Z,4.18
2019-01-26T23:52:20.805Z,4.23
2019-01-26T23:54:51.786Z,4.11
2019-01-26T23:57:24.305Z,4.25
2019-01-26T23:59:57.122Z,4.14
